Time;durP1;ratioP1;P1;durP2;ratioP2;P2;SDS_P1;SDS_P2;PMS_P1;PMS_P2;Temp;Humidity;BMP_temperature;BMP_pressure;BME280_temperature;BME280_humidity;BME280_pressure;Samples;Min_cycle;Max_cycle;Signal;HPM_P1;HPM_P2
2022/05/27 00:00:05;;;;;;;14.75;3.47;;;14.00;99.90;;;;;;4927878;28;206193;-67
2022/05/27 00:02:32;;;;;;;14.85;3.70;;;14.00;99.90;;;;;;4964518;28;20047;-68
2022/05/27 00:04:58;;;;;;;18.27;3.92;;;13.90;99.90;;;;;;4898701;28;212053;-69
2022/05/27 00:07:24;;;;;;;18.40;3.63;;;14.00;99.90;;;;;;4962804;28;20051;-69
2022/05/27 00:09:50;;;;;;;16.25;4.20;;;13.90;99.90;;;;;;4914481;28;211753;-70
2022/05/27 00:12:16;;;;;;;15.68;3.72;;;13.90;99.90;;;;;;4971171;28;20605;-70
2022/05/27 00:14:42;;;;;;;17.95;4.43;;;13.90;99.90;;;;;;4933258;28;207098;-70
2022/05/27 00:17:08;;;;;;;21.02;4.25;;;13.90;99.90;;;;;;4954271;28;20051;-69
2022/05/27 00:19:35;;;;;;;18.77;3.80;;;13.90;99.90;;;;;;4922722;28;214180;-69
2022/05/27 00:22:01;;;;;;;15.65;3.53;;;13.90;99.90;;;;;;4980459;28;20262;-69
2022/05/27 00:24:27;;;;;;;17.10;3.85;;;13.80;99.90;;;;;;4926241;28;206109;-69
2022/05/27 00:26:53;;;;;;;17.98;3.42;;;13.80;99.90;;;;;;4970870;28;20447;-70
2022/05/27 00:29:19;;;;;;;16.58;3.30;;;13.80;99.90;;;;;;4933466;28;208747;-68
2022/05/27 00:31:45;;;;;;;15.73;3.67;;;13.80;99.90;;;;;;4969171;28;20046;-67
2022/05/27 00:34:13;;;;;;;15.77;3.72;;;13.70;99.90;;;;;;4908031;28;208681;-68
2022/05/27 00:36:40;;;;;;;16.45;3.28;;;13.70;99.90;;;;;;4977720;28;20058;-69
2022/05/27 00:39:06;;;;;;;16.93;3.77;;;13.70;99.90;;;;;;4932889;28;244014;-68
2022/05/27 00:41:32;;;;;;;19.45;4.07;;;13.70;99.90;;;;;;5015097;28;20058;-68
2022/05/27 00:43:59;;;;;;;18.48;4.30;;;13.60;99.90;;;;;;4958866;28;206975;-69
2022/05/27 00:46:29;;;;;;;20.67;3.50;;;13.60;99.90;;;;;;4984619;28;20054;-69
2022/05/27 00:49:05;;;;;;;18.42;3.53;;;13.60;99.90;;;;;;4943401;28;212962;-69
2022/05/27 00:51:34;;;;;;;18.77;3.78;;;13.60;99.90;;;;;;4991823;28;20038;-68
2022/05/27 00:54:16;;;;;;;18.10;3.63;;;13.60;99.90;;;;;;4934335;28;219761;-69
2022/05/27 00:56:45;;;;;;;15.98;3.50;;;13.50;99.90;;;;;;4977060;28;20059;-69
2022/05/27 00:59:21;;;;;;;17.23;4.20;;;13.50;99.90;;;;;;4936097;28;146374;-69
2022/05/27 01:01:47;;;;;;;21.00;3.75;;;13.50;99.90;;;;;;4970006;28;20043;-69
2022/05/27 01:04:14;;;;;;;19.30;4.10;;;13.50;99.90;;;;;;4907215;28;209427;-68
2022/05/27 01:06:40;;;;;;;17.75;3.58;;;13.40;99.90;;;;;;4971429;28;20061;-69
2022/05/27 01:09:06;;;;;;;17.98;3.75;;;13.40;99.90;;;;;;4922009;28;211837;-69
2022/05/27 01:12:00;;;;;;;19.73;4.00;;;13.40;99.90;;;;;;4962745;28;20073;-69
2022/05/27 01:14:39;;;;;;;16.45;3.88;;;13.40;99.90;;;;;;4926010;28;208189;-69
2022/05/27 01:17:32;;;;;;;20.08;3.97;;;13.30;99.90;;;;;;4978346;28;20050;-68
2022/05/27 01:20:18;;;;;;;20.05;3.78;;;13.30;99.90;;;;;;4931534;28;277980;-69
2022/05/27 01:23:15;;;;;;;19.15;3.90;;;13.30;99.90;;;;;;4982862;28;20623;-67
2022/05/27 01:26:18;;;;;;;21.60;4.43;;;13.20;99.90;;;;;;4936409;28;201996;-68
2022/05/27 01:29:04;;;;;;;25.67;4.22;;;13.10;99.90;;;;;;4940636;28;210598;-69
2022/05/27 01:32:02;;;;;;;19.60;4.25;;;13.10;99.90;;;;;;4950400;28;20519;-69
2022/05/27 01:34:35;;;;;;;25.63;4.15;;;13.10;99.90;;;;;;4914546;28;209062;-68
2022/05/27 01:37:11;;;;;;;24.85;4.43;;;13.10;99.90;;;;;;4960961;28;20059;-68
2022/05/27 01:40:06;;;;;;;21.10;4.18;;;13.00;99.90;;;;;;4922855;28;207621;-69
2022/05/27 01:42:47;;;;;;;18.77;4.30;;;13.10;99.90;;;;;;4959935;28;20051;-70
2022/05/27 01:45:28;;;;;;;25.00;4.13;;;13.00;99.90;;;;;;4972390;28;206617;-67
2022/05/27 01:47:57;;;;;;;;;;;13.00;99.90;;;;;;5003868;28;20081;-68
2022/05/27 01:50:28;;;;;;;19.38;3.92;;;13.00;99.90;;;;;;4958645;28;214733;-68
2022/05/27 01:53:53;;;;;;;20.42;3.80;;;13.00;99.90;;;;;;4988266;28;20483;-68
2022/05/27 01:56:21;;;;;;;23.88;4.32;;;13.00;99.90;;;;;;4888184;28;207278;-68
2022/05/27 01:59:00;;;;;;;18.90;3.97;;;12.90;99.90;;;;;;4917067;28;150858;-66
2022/05/27 02:01:35;;;;;;;19.50;4.10;;;12.90;99.90;;;;;;4927746;28;20042;-69
2022/05/27 02:04:12;;;;;;;19.60;3.95;;;12.80;99.90;;;;;;4918026;28;211845;-68
2022/05/27 02:06:50;;;;;;;21.33;4.32;;;12.80;99.90;;;;;;4917176;28;134133;-67
2022/05/27 02:09:36;;;;;;;23.00;3.80;;;12.70;99.90;;;;;;4893316;28;227062;-68
2022/05/27 02:12:08;;;;;;;22.83;3.90;;;12.60;99.90;;;;;;4933498;28;20057;-68
2022/05/27 02:14:55;;;;;;;20.00;3.92;;;12.60;99.90;;;;;;4892357;28;227176;-68
2022/05/27 02:17:30;;;;;;;23.65;4.55;;;12.50;99.90;;;;;;4948384;28;20637;-68
2022/05/27 02:20:05;;;;;;;22.80;4.50;;;12.50;99.90;;;;;;4893119;28;209064;-69
2022/05/27 02:22:35;;;;;;;22.50;3.85;;;12.50;99.90;;;;;;4950461;28;20071;-68
2022/05/27 02:25:22;;;;;;;32.60;4.57;;;12.40;99.90;;;;;;4879700;28;234757;-68
2022/05/27 02:27:57;;;;;;;25.63;4.00;;;12.40;99.90;;;;;;4959662;28;20397;-68
2022/05/27 02:30:31;;;;;;;29.08;4.57;;;12.40;99.90;;;;;;4949645;28;216009;-69
2022/05/27 02:35:50;;;;;;;23.30;4.50;;;12.30;99.90;;;;;;4932257;28;207048;-67
2022/05/27 02:38:17;;;;;;;19.23;4.32;;;12.20;99.90;;;;;;4985630;28;20054;-70
2022/05/27 02:40:53;;;;;;;21.90;3.95;;;12.20;99.90;;;;;;4930411;28;211175;-70
2022/05/27 02:43:25;;;;;;;20.10;4.00;;;12.10;99.90;;;;;;4960915;28;20069;-70
2022/05/27 02:46:45;;;;;;;20.50;3.78;;;12.10;99.90;;;;;;4901959;28;244370;-70
2022/05/27 02:49:17;;;;;;;20.33;3.83;;;12.00;99.90;;;;;;4896753;28;210471;-70
2022/05/27 02:52:00;;;;;;;31.00;4.53;;;12.00;99.90;;;;;;4958261;28;20427;-71
2022/05/27 02:54:26;;;;;;;23.63;4.47;;;11.90;99.90;;;;;;4909784;28;206343;-70
2022/05/27 02:57:08;;;;;;;20.45;4.10;;;11.90;99.90;;;;;;4958217;28;20053;-71
2022/05/27 02:59:36;;;;;;;20.02;4.28;;;11.90;99.90;;;;;;4911835;28;211601;-70
2022/05/27 03:02:12;;;;;;;28.80;3.92;;;11.80;99.90;;;;;;4943878;28;20065;-70
2022/05/27 03:04:46;;;;;;;19.95;4.35;;;11.90;99.90;;;;;;4902667;28;172005;-71
2022/05/27 03:07:36;;;;;;;24.52;4.28;;;11.80;99.90;;;;;;4967819;28;20121;-70
2022/05/27 03:10:39;;;;;;;22.00;4.28;;;11.80;99.90;;;;;;4888940;28;211907;-70
2022/05/27 03:13:55;;;;;;;20.27;3.60;;;11.80;99.90;;;;;;4963680;28;20508;-70
2022/05/27 03:16:32;;;;;;;22.25;4.55;;;11.80;99.90;;;;;;4811943;29;169562;-69
2022/05/27 03:19:21;;;;;;;23.73;3.95;;;11.70;99.90;;;;;;4829937;29;206768;-71
2022/05/27 03:22:02;;;;;;;23.67;4.78;;;11.70;99.90;;;;;;4860031;29;20071;-71
2022/05/27 03:24:42;;;;;;;26.05;4.28;;;11.70;99.90;;;;;;4825048;29;209008;-70
2022/05/27 03:27:16;;;;;;;23.17;4.40;;;11.70;99.90;;;;;;4870555;29;20202;-70
2022/05/27 03:30:19;;;;;;;24.50;4.32;;;11.70;99.90;;;;;;4835528;29;175835;-70
2022/05/27 03:33:33;;;;;;;22.27;3.85;;;11.60;99.90;;;;;;4889669;29;20222;-70
2022/05/27 03:36:01;;;;;;;22.48;4.20;;;11.60;99.90;;;;;;4820494;29;207186;-70
2022/05/27 03:38:39;;;;;;;23.20;4.57;;;11.60;99.90;;;;;;4826734;29;218574;-71
2022/05/27 03:41:18;;;;;;;28.52;5.03;;;11.60;99.90;;;;;;4839239;29;29576;-71
2022/05/27 03:43:46;;;;;;;20.33;4.63;;;11.60;99.90;;;;;;4811556;29;191166;-70
2022/05/27 03:46:12;;;;;;;22.83;4.40;;;11.60;99.90;;;;;;4831956;29;100065;-70
2022/05/27 03:48:38;;;;;;;25.08;4.60;;;11.60;99.90;;;;;;4814069;29;207184;-70
2022/05/27 03:51:18;;;;;;;23.25;4.72;;;11.60;99.90;;;;;;4836668;29;226752;-71
2022/05/27 03:54:03;;;;;;;28.02;5.47;;;11.60;99.90;;;;;;4819162;29;154526;-71
2022/05/27 03:56:48;;;;;;;24.52;4.68;;;11.60;99.90;;;;;;4851476;29;20058;-70
2022/05/27 03:59:15;;;;;;;19.57;3.80;;;11.70;99.90;;;;;;4799185;29;210036;-70
2022/05/27 04:01:45;;;;;;;25.55;4.30;;;11.70;99.90;;;;;;4843326;29;20061;-71
2022/05/27 04:04:13;;;;;;;22.85;4.78;;;11.70;99.90;;;;;;4791664;29;210600;-70
2022/05/27 04:06:39;;;;;;;28.48;4.55;;;11.70;99.90;;;;;;4855998;29;20061;-70
2022/05/27 04:09:06;;;;;;;24.50;4.55;;;11.70;99.90;;;;;;4825237;29;251869;-71
2022/05/27 04:11:33;;;;;;;20.25;3.83;;;11.80;99.90;;;;;;4888071;28;20069;-70
2022/05/27 04:14:00;;;;;;;22.60;3.90;;;11.80;99.90;;;;;;4928800;28;209020;-70
2022/05/27 04:16:26;;;;;;;20.58;4.25;;;11.80;99.90;;;;;;4983448;28;20057;-70
2022/05/27 04:18:53;;;;;;;22.02;4.07;;;11.80;99.90;;;;;;4948176;28;178453;-70
2022/05/27 04:21:19;;;;;;;25.90;4.75;;;11.90;99.90;;;;;;4993190;28;134458;-71
2022/05/27 04:23:46;;;;;;;24.65;4.30;;;11.90;99.90;;;;;;4936515;28;217406;-71
2022/05/27 04:26:12;;;;;;;26.30;4.80;;;12.00;99.90;;;;;;4977160;28;20074;-71
2022/05/27 04:28:38;;;;;;;23.42;4.78;;;12.00;99.90;;;;;;4925116;28;209907;-70
2022/05/27 04:31:04;;;;;;;21.77;4.03;;;12.00;99.90;;;;;;4946186;28;253448;-70
2022/05/27 04:33:30;;;;;;;23.52;4.30;;;12.00;99.90;;;;;;4925885;28;210848;-70
2022/05/27 04:35:58;;;;;;;22.23;4.10;;;12.00;99.90;;;;;;4956007;28;32501;-69
2022/05/27 04:38:25;;;;;;;24.67;3.80;;;12.10;99.90;;;;;;4943397;28;212571;-70
2022/05/27 04:40:52;;;;;;;24.88;4.15;;;12.10;99.90;;;;;;4981177;28;206545;-69
2022/05/27 04:43:18;;;;;;;20.63;3.80;;;12.10;99.90;;;;;;4985351;28;20122;-70
2022/05/27 04:45:45;;;;;;;20.73;3.60;;;12.10;99.90;;;;;;4952044;28;218206;-70
2022/05/27 04:48:11;;;;;;;20.58;3.42;;;12.20;99.90;;;;;;4982227;28;20499;-70
2022/05/27 04:50:38;;;;;;;19.88;3.42;;;12.20;99.90;;;;;;4936603;28;206441;-70
2022/05/27 04:53:04;;;;;;;20.60;3.97;;;12.10;99.90;;;;;;4984521;28;20050;-70
2022/05/27 04:55:32;;;;;;;21.35;3.13;;;12.10;99.90;;;;;;4937585;28;213810;-70
2022/05/27 04:58:02;;;;;;;20.05;3.13;;;12.10;99.90;;;;;;5011292;28;20480;-70
2022/05/27 05:00:35;;;;;;;20.92;2.75;;;12.10;99.90;;;;;;4937855;28;218334;-69
2022/05/27 05:03:01;;;;;;;17.98;3.17;;;12.10;99.90;;;;;;4981432;28;20062;-70
2022/05/27 05:05:30;;;;;;;16.05;2.60;;;12.20;99.90;;;;;;4900231;28;210125;-70
2022/05/27 05:08:07;;;;;;;19.08;3.25;;;12.20;99.90;;;;;;4957555;28;20062;-71
2022/05/27 05:10:35;;;;;;;18.00;3.05;;;12.20;99.90;;;;;;4928529;28;234146;-70
2022/05/27 05:13:02;;;;;;;18.45;3.28;;;12.20;99.90;;;;;;4967135;28;20057;-70
2022/05/27 05:15:29;;;;;;;14.93;3.10;;;12.20;99.90;;;;;;4941844;28;213063;-70
2022/05/27 05:17:55;;;;;;;18.55;3.10;;;12.30;99.90;;;;;;5015800;28;20076;-69
2022/05/27 05:20:26;;;;;;;20.05;3.03;;;12.30;99.90;;;;;;4923405;28;209974;-69
2022/05/27 05:22:52;;;;;;;21.27;2.97;;;12.40;99.90;;;;;;4992105;28;21466;-69
2022/05/27 05:25:18;;;;;;;19.35;3.13;;;12.50;99.90;;;;;;4948286;28;210278;-69
2022/05/27 05:27:45;;;;;;;18.08;3.15;;;12.50;99.90;;;;;;4984004;28;20165;-70
2022/05/27 05:30:15;;;;;;;18.60;3.45;;;12.60;99.90;;;;;;4939258;28;206903;-69
2022/05/27 05:32:41;;;;;;;18.03;3.10;;;12.70;99.90;;;;;;4991132;28;20063;-69
2022/05/27 05:35:08;;;;;;;15.63;2.65;;;12.80;99.90;;;;;;4966443;28;208377;-69
2022/05/27 05:37:35;;;;;;;17.83;2.95;;;12.80;99.90;;;;;;4973074;28;20058;-70
2022/05/27 05:40:02;;;;;;;21.15;3.20;;;12.70;99.90;;;;;;4937777;28;234138;-69
2022/05/27 05:42:29;;;;;;;17.80;3.00;;;12.70;99.90;;;;;;4965954;28;20519;-69
2022/05/27 05:44:56;;;;;;;17.15;2.88;;;12.70;99.90;;;;;;4948970;28;214810;-69
2022/05/27 05:47:22;;;;;;;19.08;2.92;;;12.80;99.90;;;;;;4995712;28;20053;-69
2022/05/27 05:49:48;;;;;;;16.17;2.55;;;12.80;99.90;;;;;;4937179;28;233666;-68
2022/05/27 05:52:14;;;;;;;20.50;3.03;;;12.80;99.90;;;;;;4995981;28;20053;-69
2022/05/27 05:54:40;;;;;;;17.40;3.03;;;12.80;99.90;;;;;;4936245;28;212309;-69
2022/05/27 05:57:06;;;;;;;18.33;3.40;;;12.80;99.90;;;;;;4989733;28;20411;-69
2022/05/27 05:59:34;;;;;;;18.33;2.70;;;12.90;99.90;;;;;;4944144;28;213306;-69
2022/05/27 06:02:01;;;;;;;18.95;3.00;;;13.00;99.90;;;;;;4978562;28;20506;-69
2022/05/27 06:04:28;;;;;;;17.92;2.92;;;13.00;99.90;;;;;;4917217;28;179941;-68
2022/05/27 06:06:54;;;;;;;15.95;2.80;;;13.20;99.90;;;;;;4963071;28;20406;-69
2022/05/27 06:09:25;;;;;;;17.85;3.13;;;13.40;99.90;;;;;;4922077;28;207936;-69
2022/05/27 06:11:53;;;;;;;18.40;3.45;;;13.60;99.90;;;;;;5002822;28;20042;-68
2022/05/27 06:14:20;;;;;;;17.58;3.00;;;13.80;99.90;;;;;;4920710;28;210797;-69
2022/05/27 06:16:46;;;;;;;15.88;2.90;;;13.70;99.90;;;;;;4972469;28;20441;-69
2022/05/27 06:19:12;;;;;;;18.13;3.17;;;13.60;99.90;;;;;;4924804;28;217810;-68
2022/05/27 06:21:38;;;;;;;18.05;3.25;;;13.70;99.90;;;;;;4995987;28;20388;-69
2022/05/27 06:24:06;;;;;;;16.17;2.75;;;13.80;99.90;;;;;;4947052;28;210749;-69
2022/05/27 06:26:32;;;;;;;23.65;3.42;;;13.90;99.90;;;;;;4985331;28;20050;-69
2022/05/27 06:34:29;;;;;;;18.60;2.97;;;14.20;99.90;;;;;;4918770;28;213532;-70
2022/05/27 06:37:12;;;;;;;18.08;3.55;;;14.10;99.90;;;;;;4997765;28;20054;-69
2022/05/27 06:39:38;;;;;;;15.88;2.67;;;14.30;99.90;;;;;;4931400;28;209995;-69
2022/05/27 06:42:10;;;;;;;19.33;3.08;;;14.40;99.90;;;;;;4957735;28;20050;-69
2022/05/27 06:44:37;;;;;;;16.83;3.17;;;14.10;99.90;;;;;;4922436;28;212790;-69
2022/05/27 06:47:04;;;;;;;13.43;2.83;;;14.40;99.90;;;;;;4973452;28;20393;-69
2022/05/27 06:49:30;;;;;;;16.80;3.08;;;14.50;99.90;;;;;;4934121;28;212863;-69
2022/05/27 06:51:56;;;;;;;19.92;3.47;;;14.40;99.90;;;;;;4976351;28;20177;-69
2022/05/27 06:54:23;;;;;;;17.02;3.20;;;14.60;99.90;;;;;;4934890;28;210103;-69
2022/05/27 06:56:52;;;;;;;20.67;3.15;;;14.70;99.90;;;;;;4976890;28;20610;-69
2022/05/27 06:59:20;;;;;;;16.00;2.92;;;14.80;99.90;;;;;;4933164;28;208917;-69
2022/05/27 07:01:47;;;;;;;17.30;2.92;;;14.90;99.90;;;;;;4987704;28;20057;-68
2022/05/27 07:04:13;;;;;;;17.20;2.73;;;15.00;99.90;;;;;;4913354;28;250913;-70
2022/05/27 07:06:43;;;;;;;16.45;2.80;;;15.00;95.70;;;;;;4990469;28;20083;-69
2022/05/27 07:09:14;;;;;;;17.02;2.80;;;14.90;96.90;;;;;;4924295;28;215280;-69
2022/05/27 07:11:43;;;;;;;15.80;2.83;;;15.00;97.30;;;;;;4988571;28;20054;-69
2022/05/27 07:14:09;;;;;;;17.02;2.90;;;15.20;98.80;;;;;;4939219;28;210347;-69
2022/05/27 07:16:35;;;;;;;18.92;2.90;;;15.20;98.40;;;;;;5007623;28;20057;-69
2022/05/27 07:19:02;;;;;;;18.17;3.33;;;15.10;94.10;;;;;;4938883;28;208782;-69
2022/05/27 07:21:28;;;;;;;16.92;2.95;;;14.90;96.90;;;;;;4993389;28;20039;-69
2022/05/27 07:23:55;;;;;;;15.25;2.70;;;14.70;95.70;;;;;;4972967;28;221943;-67
2022/05/27 07:26:22;;;;;;;14.75;2.63;;;14.40;95.70;;;;;;4987364;28;40172;-67
2022/05/27 07:28:48;;;;;;;13.30;2.70;;;14.70;97.20;;;;;;4944077;28;214194;-66
2022/05/27 07:31:17;;;;;;;17.27;3.00;;;15.00;97.90;;;;;;5003502;28;80975;-67
2022/05/27 07:33:44;;;;;;;13.40;2.40;;;14.80;95.60;;;;;;4945546;28;212632;-70
2022/05/27 07:36:11;;;;;;;15.15;2.58;;;14.80;94.70;;;;;;4948779;28;200495;-68
2022/05/27 07:38:37;;;;;;;16.33;3.10;;;15.00;94.80;;;;;;4934238;28;212749;-67
2022/05/27 07:41:05;;;;;;;16.65;2.80;;;15.30;96.00;;;;;;4991655;28;20554;-66
2022/05/27 07:43:32;;;;;;;15.98;3.05;;;15.30;93.20;;;;;;4939678;28;210288;-68
2022/05/27 07:45:59;;;;;;;15.15;3.00;;;15.10;94.80;;;;;;4969923;28;68140;-66
2022/05/27 07:48:25;;;;;;;15.70;2.95;;;15.20;96.10;;;;;;4963384;28;219290;-68
2022/05/27 07:50:52;;;;;;;17.05;2.90;;;15.50;95.60;;;;;;4974643;28;210709;-66
2022/05/27 07:53:19;;;;;;;15.63;3.08;;;15.60;94.30;;;;;;4989506;28;20358;-66
2022/05/27 07:55:46;;;;;;;20.73;3.03;;;15.60;92.40;;;;;;4941344;28;205725;-66
2022/05/27 07:58:12;;;;;;;14.15;2.90;;;15.90;93.00;;;;;;4988062;28;20055;-66
2022/05/27 08:00:38;;;;;;;15.38;2.78;;;15.70;94.20;;;;;;4944309;28;211190;-68
2022/05/27 08:03:05;;;;;;;15.18;3.20;;;15.60;95.80;;;;;;4985675;28;20042;-67
2022/05/27 08:05:32;;;;;;;16.17;3.10;;;15.20;95.90;;;;;;4936675;28;212729;-67
2022/05/27 08:08:00;;;;;;;19.75;3.13;;;14.80;96.80;;;;;;4984380;28;20058;-66
2022/05/27 08:10:29;;;;;;;14.10;2.40;;;14.50;97.50;;;;;;4932427;28;209275;-66
2022/05/27 08:12:56;;;;;;;14.68;2.50;;;14.90;97.30;;;;;;4980422;28;20373;-66
2022/05/27 08:15:23;;;;;;;18.52;2.83;;;15.20;96.40;;;;;;4934644;28;210238;-66
2022/05/27 08:17:49;;;;;;;14.70;2.63;;;15.60;95.20;;;;;;5007624;28;20050;-66
2022/05/27 08:20:18;;;;;;;17.63;2.80;;;16.00;94.50;;;;;;4947400;28;210273;-67
2022/05/27 08:22:49;;;;;;;15.82;2.58;;;16.40;96.00;;;;;;4985229;28;20054;-67
2022/05/27 08:25:16;;;;;;;17.17;2.65;;;16.50;93.20;;;;;;4943111;28;208430;-66
2022/05/27 08:27:43;;;;;;;16.60;2.78;;;16.00;93.50;;;;;;4979626;28;20050;-67
2022/05/27 08:30:13;;;;;;;16.40;2.92;;;15.70;95.60;;;;;;4955925;28;213335;-67
2022/05/27 08:32:39;;;;;;;15.82;2.67;;;15.60;94.70;;;;;;4983921;28;20076;-67
2022/05/27 08:38:05;;;;;;;15.48;3.00;;;16.00;94.80;;;;;;4978151;28;20043;-67
2022/05/27 08:40:41;;;;;;;16.08;3.08;;;16.50;93.50;;;;;;4946975;28;211011;-67
2022/05/27 08:43:26;;;;;;;15.10;2.70;;;16.30;91.40;;;;;;4982044;28;20058;-67
2022/05/27 08:46:17;;;;;;;13.52;2.55;;;15.90;90.00;;;;;;4911223;28;207322;-68
2022/05/27 08:48:47;;;;;;;15.63;2.83;;;15.40;85.90;;;;;;4947082;28;209993;-65
2022/05/27 08:51:20;;;;;;;16.83;2.95;;;15.40;89.60;;;;;;4990240;28;122149;-67
2022/05/27 08:53:52;;;;;;;16.63;2.90;;;15.70;91.10;;;;;;4952709;28;211669;-66
2022/05/27 08:59:54;;;;;;;14.75;2.58;;;16.20;84.40;;;;;;4961446;28;145074;-66
2022/05/27 09:02:44;;;;;;;15.13;2.70;;;16.40;82.90;;;;;;4997788;28;20050;-67
2022/05/27 09:05:28;;;;;;;17.00;2.53;;;16.80;85.20;;;;;;4912874;28;212286;-66
2022/05/27 09:07:59;;;;;;;13.60;2.65;;;16.80;84.50;;;;;;4966968;28;20058;-67
2022/05/27 09:10:51;;;;;;;17.52;2.95;;;16.70;87.90;;;;;;4924088;28;206152;-67
2022/05/27 09:13:22;;;;;;;16.42;2.80;;;16.40;86.60;;;;;;4972606;28;20053;-67
2022/05/27 09:16:06;;;;;;;11.73;2.30;;;16.50;87.50;;;;;;4928569;28;75876;-67
2022/05/27 09:18:36;;;;;;;13.43;2.33;;;16.80;85.70;;;;;;4935872;28;208290;-68
2022/05/27 09:21:24;;;;;;;14.73;2.60;;;16.50;79.70;;;;;;4972158;28;111394;-67
2022/05/27 09:24:06;;;;;;;14.77;2.55;;;16.20;82.00;;;;;;4918331;28;210512;-68
2022/05/27 09:27:01;;;;;;;15.98;3.00;;;16.00;86.50;;;;;;4974652;28;20038;-66
2022/05/27 09:29:48;;;;;;;13.35;2.63;;;16.50;88.30;;;;;;4931404;28;208618;-67
2022/05/27 09:32:32;;;;;;;14.80;2.38;;;16.80;84.00;;;;;;4968072;28;20055;-66
2022/05/27 09:35:24;;;;;;;13.85;2.47;;;16.60;83.10;;;;;;4937098;28;214560;-66
2022/05/27 09:37:53;;;;;;;15.00;2.40;;;16.10;83.90;;;;;;4936582;28;20055;-67
2022/05/27 09:40:31;;;;;;;17.20;2.90;;;15.60;84.50;;;;;;4868772;28;206826;-67
2022/05/27 09:43:19;;;;;;;18.75;2.53;;;15.70;86.90;;;;;;4934983;28;20221;-66
2022/05/27 09:45:55;;;;;;;12.45;2.35;;;15.70;86.10;;;;;;4891632;28;232988;-67
2022/05/27 09:48:21;;;;;;;17.08;2.72;;;15.40;88.40;;;;;;4931605;28;71844;-66
2022/05/27 09:50:49;;;;;;;15.43;2.53;;;15.50;89.80;;;;;;4897091;28;198769;-66
2022/05/27 09:53:27;;;;;;;13.30;2.53;;;15.70;89.10;;;;;;4946511;28;20116;-66
2022/05/27 09:56:08;;;;;;;16.40;2.78;;;15.70;87.70;;;;;;4888092;28;113571;-66
2022/05/27 09:58:36;;;;;;;16.80;2.83;;;15.70;87.40;;;;;;4895154;28;210058;-67
2022/05/27 10:01:22;;;;;;;14.02;2.42;;;15.70;88.90;;;;;;4930862;28;20047;-66
2022/05/27 10:04:12;;;;;;;13.80;2.50;;;15.90;89.40;;;;;;4894680;28;205627;-68
2022/05/27 10:06:40;;;;;;;16.83;2.60;;;16.50;85.00;;;;;;4914642;28;168083;-67
2022/05/27 10:09:30;;;;;;;16.35;2.50;;;17.10;81.30;;;;;;4900847;28;206515;-67
2022/05/27 10:11:58;;;;;;;14.48;2.58;;;16.90;81.80;;;;;;4943342;28;20600;-68
2022/05/27 10:14:31;;;;;;;14.77;2.55;;;16.50;81.00;;;;;;4891094;28;209367;-66
2022/05/27 10:17:09;;;;;;;15.60;2.42;;;17.00;83.90;;;;;;4968721;28;20786;-67
2022/05/27 10:19:40;;;;;;;15.48;2.70;;;16.80;76.40;;;;;;4905480;28;210085;-67
2022/05/27 10:22:25;;;;;;;13.90;2.70;;;16.40;79.90;;;;;;4966051;28;20058;-67
2022/05/27 10:25:07;;;;;;;14.73;2.63;;;16.30;79.40;;;;;;4917757;28;212011;-67
2022/05/27 10:27:37;;;;;;;16.52;2.67;;;16.20;81.00;;;;;;4980425;28;20042;-66
2022/05/27 10:30:26;;;;;;;13.52;2.72;;;16.40;80.90;;;;;;4930601;28;207396;-66
2022/05/27 10:32:53;;;;;;;15.10;2.40;;;16.60;77.40;;;;;;5001902;28;20062;-66
2022/05/27 10:35:32;;;;;;;14.75;2.28;;;16.30;78.40;;;;;;4952454;28;214483;-66
2022/05/27 10:38:36;;;;;;;15.98;2.92;;;15.90;80.80;;;;;;4978949;28;20055;-66
2022/05/27 10:41:16;;;;;;;17.05;2.70;;;15.80;81.70;;;;;;4931406;28;174421;-67
2022/05/27 10:43:48;;;;;;;13.82;2.30;;;15.90;80.40;;;;;;4934510;28;210829;-66
2022/05/27 10:46:19;;;;;;;13.50;2.42;;;16.20;80.10;;;;;;5002771;28;23548;-66
2022/05/27 10:49:10;;;;;;;;;;;16.70;76.20;;;;;;4935986;28;209209;-66
2022/05/27 10:51:58;;;;;;;13.60;2.10;;;16.70;79.50;;;;;;4964170;28;19922;-67
2022/05/27 10:54:58;;;;;;;15.88;2.60;;;16.60;79.00;;;;;;4918688;28;242297;-68
2022/05/27 11:04:34;;;;;;;14.60;2.78;;;16.70;82.70;;;;;;4936189;28;216233;-67
2022/05/27 11:07:38;;;;;;;19.67;2.67;;;17.10;78.50;;;;;;4951001;28;198566;-67
2022/05/27 11:10:16;;;;;;;16.48;2.53;;;17.10;79.50;;;;;;4935559;28;206825;-68
2022/05/27 11:15:47;;;;;;;13.85;2.75;;;17.50;76.40;;;;;;4945955;28;208982;-65
2022/05/27 11:18:39;;;;;;;16.00;2.35;;;17.70;75.90;;;;;;4979564;28;20081;-66
2022/05/27 11:21:39;;;;;;;14.77;2.75;;;18.00;74.70;;;;;;4903962;28;208087;-67
2022/05/27 11:24:14;;;;;;;16.50;2.78;;;17.60;78.80;;;;;;4889640;28;188514;-66
2022/05/27 11:26:46;;;;;;;14.00;2.45;;;17.90;74.80;;;;;;4929497;28;20091;-67
2022/05/27 11:29:42;;;;;;;15.45;2.45;;;17.60;72.40;;;;;;4874620;28;219584;-66
2022/05/27 11:32:11;;;;;;;16.92;2.70;;;17.00;75.20;;;;;;4935163;28;20163;-65
2022/05/27 11:34:40;;;;;;;13.10;2.30;;;16.50;77.60;;;;;;4888142;28;206350;-67
2022/05/27 11:37:21;;;;;;;13.68;2.60;;;16.70;81.40;;;;;;4938961;28;20056;-66
2022/05/27 11:40:01;;;;;;;14.23;2.65;;;16.90;82.30;;;;;;4881597;28;207131;-65
2022/05/27 11:42:55;;;;;;;13.07;2.10;;;16.80;77.70;;;;;;4903628;29;20056;-66
2022/05/27 11:45:25;;;;;;;16.80;2.97;;;16.70;77.60;;;;;;4838548;29;208617;-66
2022/05/27 11:48:16;;;;;;;17.08;2.88;;;16.70;78.90;;;;;;4906559;29;20055;-67
2022/05/27 11:51:10;;;;;;;16.05;3.03;;;17.20;79.40;;;;;;4817412;29;206763;-67
2022/05/27 11:54:01;;;;;;;13.85;2.58;;;17.10;77.90;;;;;;4863617;29;206496;-65
2022/05/27 11:56:35;;;;;;;16.17;2.78;;;16.80;79.90;;;;;;4865426;29;20599;-66
2022/05/27 11:59:08;;;;;;;17.88;3.20;;;16.90;80.70;;;;;;4863959;29;207929;-64
2022/05/27 12:01:47;;;;;;;17.25;3.00;;;16.90;82.50;;;;;;4926531;28;20055;-66
2022/05/27 12:04:30;;;;;;;15.67;2.90;;;16.50;80.50;;;;;;4873121;28;279543;-65
2022/05/27 12:07:10;;;;;;;15.38;2.72;;;16.40;82.00;;;;;;4918643;28;20337;-66
2022/05/27 12:10:13;;;;;;;13.25;2.60;;;16.80;80.30;;;;;;4895141;28;161402;-67
2022/05/27 12:12:51;;;;;;;15.70;2.38;;;17.40;79.70;;;;;;4923637;29;20059;-67
2022/05/27 12:15:36;;;;;;;14.13;2.83;;;17.00;78.50;;;;;;4868407;28;209070;-66
2022/05/27 12:18:04;;;;;;;14.82;2.40;;;17.00;80.30;;;;;;4940287;28;20263;-66
2022/05/27 12:20:34;;;;;;;14.73;2.78;;;17.30;81.00;;;;;;4870208;28;209581;-65
2022/05/27 12:23:06;;;;;;;15.18;2.97;;;16.90;80.00;;;;;;4968483;28;20050;-65
2022/05/27 12:25:40;;;;;;;16.45;2.85;;;16.50;83.40;;;;;;4926679;28;209924;-66
2022/05/27 12:28:07;;;;;;;19.10;3.05;;;16.00;85.10;;;;;;4990040;28;20050;-66
2022/05/27 12:30:40;;;;;;;16.40;2.65;;;16.50;85.90;;;;;;4945427;28;247655;-66
2022/05/27 12:33:15;;;;;;;19.35;2.90;;;17.00;82.80;;;;;;4988194;28;20062;-65
2022/05/27 12:36:09;;;;;;;15.52;2.53;;;16.90;83.50;;;;;;4955965;28;205506;-65
2022/05/27 12:38:43;;;;;;;18.65;3.08;;;15.90;83.70;;;;;;4939920;28;205117;-66
2022/05/27 12:41:10;;;;;;;14.27;2.60;;;15.90;85.90;;;;;;4908163;28;242683;-65
2022/05/27 12:43:38;;;;;;;14.75;3.00;;;15.80;87.30;;;;;;4931139;28;206807;-65
2022/05/27 12:46:04;;;;;;;16.75;2.92;;;15.70;88.10;;;;;;4934517;28;352488;-66
2022/05/27 12:48:42;;;;;;;16.30;3.13;;;15.40;90.00;;;;;;4932673;28;108056;-65
2022/05/27 12:51:18;;;;;;;16.60;3.00;;;15.70;90.80;;;;;;4961696;28;261646;-66
2022/05/27 12:53:56;;;;;;;19.25;3.30;;;16.20;90.50;;;;;;4925997;28;206804;-65
2022/05/27 13:02:33;;;;;;;17.42;2.92;;;15.90;92.70;;;;;;4969384;28;20502;-63
2022/05/27 13:05:02;;;;;;;16.88;2.88;;;16.10;92.70;;;;;;4886159;28;213556;-65
2022/05/27 13:07:28;;;;;;;14.30;2.80;;;16.20;92.50;;;;;;4951181;28;20081;-66
2022/05/27 13:10:16;;;;;;;16.05;2.85;;;16.50;91.50;;;;;;4915340;28;215923;-65
2022/05/27 13:12:46;;;;;;;17.25;3.10;;;16.70;91.10;;;;;;4931770;28;20453;-65
2022/05/27 13:15:24;;;;;;;20.07;3.27;;;16.70;90.50;;;;;;4895183;28;213942;-65
2022/05/27 13:18:23;;;;;;;17.98;2.55;;;16.60;91.10;;;;;;4989983;28;20050;-65
2022/05/27 13:21:00;;;;;;;15.77;2.85;;;16.30;90.40;;;;;;4916191;28;246483;-64
2022/05/27 13:23:29;;;;;;;17.00;3.13;;;16.30;91.50;;;;;;4927678;28;212332;-66
2022/05/27 13:26:04;;;;;;;16.65;2.92;;;16.00;91.60;;;;;;4973779;28;27862;-65
2022/05/27 13:28:33;;;;;;;17.23;3.10;;;15.60;93.00;;;;;;4919489;28;213151;-64
2022/05/27 13:31:04;;;;;;;18.90;3.30;;;15.40;93.30;;;;;;5003006;28;210782;-64
2022/05/27 13:33:38;;;;;;;;;;;15.50;93.80;;;;;;4932923;28;210723;-64
2022/05/27 13:36:18;;;;;;;16.65;2.55;;;15.80;93.80;;;;;;4976965;28;223216;-64
2022/05/27 13:39:11;;;;;;;25.17;3.05;;;15.90;93.80;;;;;;4965443;28;213189;-63